createdAt,value
2022-08-07T00:02:41.467Z,101820.38
2022-08-07T00:05:05.710Z,101818.59
2022-08-07T00:07:36.897Z,101821.28
2022-08-07T00:10:26.082Z,101813.25
2022-08-07T00:13:00.383Z,101815.94
2022-08-07T00:15:38.277Z,101813.25
2022-08-07T00:18:19.716Z,101807.88
2022-08-07T00:20:53.914Z,101815.09
2022-08-07T00:23:23.841Z,101821.41
2022-08-07T00:26:00.223Z,101826.78
2022-08-07T00:28:33.471Z,101819.63
2022-08-07T00:31:12.752Z,101827.69
2022-08-07T00:33:47.735Z,101833.03
2022-08-07T00:36:17.085Z,101829.53
2022-08-07T00:38:46.119Z,101827.78
2022-08-07T00:41:15.401Z,101824.22
2022-08-07T00:44:00.693Z,101822.44
2022-08-07T00:46:34.120Z,101820.72
2022-08-07T00:49:03.655Z,101804.69
2022-08-07T00:51:57.603Z,101822.56
2022-08-07T00:54:22.499Z,101819.81
2022-08-07T00:56:52.638Z,101819.00
2022-08-07T00:59:35.059Z,101815.47
2022-08-07T01:02:14.088Z,101810.13
2022-08-07T01:04:58.954Z,101816.38
2022-08-07T01:07:31.121Z,101813.72
2022-08-07T01:10:06.398Z,101819.06
2022-08-07T01:12:53.409Z,101812.84
2022-08-07T01:15:35.967Z,101811.09
2022-08-07T01:18:17.636Z,101819.13
2022-08-07T01:20:59.358Z,101823.59
2022-08-07T01:23:39.416Z,101813.75
2022-08-07T01:26:16.747Z,101815.56
2022-08-07T01:28:51.712Z,101821.81
2022-08-07T01:31:41.518Z,101814.59
2022-08-07T01:34:15.309Z,101814.59
2022-08-07T01:36:52.938Z,101827.09
2022-08-07T01:39:40.387Z,101814.59
2022-08-07T01:42:39.701Z,101816.38
2022-08-07T01:45:09.883Z,101817.22
2022-08-07T01:48:18.476Z,101823.47
2022-08-07T01:50:40.362Z,101819.00
2022-08-07T01:53:20.819Z,101814.50
2022-08-07T01:56:01.544Z,101818.91
2022-08-07T01:58:37.385Z,101826.03
2022-08-07T02:01:59.365Z,101827.78
2022-08-07T02:04:07.036Z,101822.38
2022-08-07T02:06:38.576Z,101824.16
2022-08-07T02:09:33.736Z,101824.16
2022-08-07T02:12:18.214Z,101817.91
2022-08-07T02:15:08.203Z,101833.09
2022-08-07T02:17:49.782Z,101824.16
2022-08-07T02:20:24.473Z,101833.16
2022-08-07T02:23:01.797Z,101822.38
2022-08-07T02:26:10.110Z,101828.66
2022-08-07T02:28:29.843Z,101835.84
2022-08-07T02:31:28.185Z,101831.31
2022-08-07T02:34:02.966Z,101822.44
2022-08-07T02:36:38.125Z,101834.06
2022-08-07T02:39:17.222Z,101833.19
2022-08-07T02:42:09.891Z,101836.75
2022-08-07T02:44:48.301Z,101835.84
2022-08-07T02:47:45.185Z,101840.38
2022-08-07T02:50:15.669Z,101830.56
2022-08-07T02:52:54.745Z,101825.25
2022-08-07T02:56:03.710Z,101831.50
2022-08-07T02:58:29.220Z,101828.81
2022-08-07T03:01:05.503Z,101835.09
2022-08-07T03:03:49.792Z,101832.41
2022-08-07T03:06:33.371Z,101835.09
2022-08-07T03:09:07.693Z,101827.09
2022-08-07T03:11:51.871Z,101829.72
2022-08-07T03:14:28.669Z,101827.94
2022-08-07T03:17:00.831Z,101823.47
2022-08-07T03:19:36.984Z,101827.94
2022-08-07T03:22:18.803Z,101820.78
2022-08-07T03:24:49.778Z,101830.56
2022-08-07T03:27:30.049Z,101829.66
2022-08-07T03:30:04.604Z,101833.16
2022-08-07T03:32:46.078Z,101821.47
2022-08-07T03:35:43.532Z,101836.66
2022-08-07T03:38:21.342Z,101832.97
2022-08-07T03:41:01.463Z,101834.69
2022-08-07T03:43:36.101Z,101828.38
2022-08-07T03:46:10.412Z,101831.00
2022-08-07T03:49:02.784Z,101835.38
2022-08-07T03:51:47.254Z,101836.16
2022-08-07T03:54:35.590Z,101833.34
2022-08-07T03:58:35.018Z,101835.91
2022-08-07T04:00:03.912Z,101837.56
2022-08-07T04:02:47.305Z,101836.56
2022-08-07T04:05:40.304Z,101838.16
2022-08-07T04:08:18.369Z,101843.38
2022-08-07T04:10:54.774Z,101848.63
2022-08-07T04:14:10.806Z,101827.75
2022-08-07T04:16:32.696Z,101835.63
2022-08-07T04:19:14.865Z,101839.00
2022-08-07T04:22:05.364Z,101846.75
2022-08-07T04:24:42.918Z,101841.06
2022-08-07T04:27:25.442Z,101853.22
2022-08-07T04:30:02.698Z,101838.47
2022-08-07T04:32:47.757Z,101848.69
2022-08-07T04:35:18.727Z,101853.66
2022-08-07T04:38:05.545Z,101846.03
2022-08-07T04:40:51.434Z,101841.97
2022-08-07T04:44:09.748Z,101842.41
2022-08-07T04:46:29.544Z,101848.19
2022-08-07T04:49:18.066Z,101839.66
2022-08-07T04:52:09.300Z,101849.75
2022-08-07T04:54:50.615Z,101846.47
2022-08-07T04:58:16.823Z,101854.00
2022-08-07T05:00:23.989Z,101858.75
2022-08-07T05:03:31.100Z,101868.88
2022-08-07T05:06:19.482Z,101868.34
2022-08-07T05:09:03.781Z,101866.94
2022-08-07T05:11:57.301Z,101871.06
2022-08-07T05:14:56.532Z,101871.59
2022-08-07T05:17:50.861Z,101864.25
2022-08-07T05:20:21.420Z,101871.13
2022-08-07T05:22:55.793Z,101874.63
2022-08-07T05:25:54.338Z,101879.09
2022-08-07T05:28:23.051Z,101873.72
2022-08-07T05:30:58.873Z,101878.13
2022-08-07T05:33:35.652Z,101888.94
2022-08-07T05:36:12.309Z,101890.69
2022-08-07T05:39:00.142Z,101893.31
2022-08-07T05:42:00.348Z,101887.94
2022-08-07T05:44:31.389Z,101889.63
2022-08-07T05:47:18.263Z,101892.16
2022-08-07T05:49:52.274Z,101886.66
2022-08-07T05:52:30.027Z,101894.53
2022-08-07T05:55:10.358Z,101888.88
2022-08-07T05:57:42.584Z,101894.00
2022-08-07T06:00:17.766Z,101895.53
2022-08-07T06:03:03.137Z,101898.78
2022-08-07T06:05:34.529Z,101901.13
2022-08-07T06:08:29.415Z,101898.91
2022-08-07T06:10:59.764Z,101900.34
2022-08-07T06:14:11.851Z,101905.25
2022-08-07T06:16:29.294Z,101903.88
2022-08-07T06:19:00.641Z,101904.25
2022-08-07T06:22:15.936Z,101901.97
2022-08-07T06:24:46.106Z,101912.19
2022-08-07T06:27:09.360Z,101912.47
2022-08-07T06:29:40.108Z,101911.91
2022-08-07T06:32:13.327Z,101914.88
2022-08-07T06:34:45.209Z,101922.31
2022-08-07T06:37:17.043Z,101912.81
2022-08-07T06:40:17.714Z,101908.69
2022-08-07T06:42:38.964Z,101918.88
2022-08-07T06:45:15.476Z,101916.50
2022-08-07T06:47:58.631Z,101917.75
2022-08-07T06:50:47.642Z,101915.28
2022-08-07T06:55:28.082Z,101917.41
2022-08-07T06:56:16.056Z,101919.63
2022-08-07T07:00:11.384Z,101920.91
2022-08-07T07:01:50.726Z,101921.31
2022-08-07T07:04:32.856Z,101910.84
2022-08-07T07:07:10.367Z,101916.66
2022-08-07T07:09:49.580Z,101919.66
2022-08-07T07:12:33.690Z,101921.75
2022-08-07T07:15:09.033Z,101919.28
2022-08-07T07:17:59.869Z,101920.72
2022-08-07T07:20:35.886Z,101916.69
2022-08-07T07:24:06.582Z,101921.75
2022-08-07T07:26:33.965Z,101915.09
2022-08-07T07:29:40.185Z,101916.53
2022-08-07T07:31:49.093Z,101923.25
2022-08-07T07:34:21.117Z,101913.81
2022-08-07T07:36:54.164Z,101907.03
2022-08-07T07:39:25.830Z,101900.41
2022-08-07T07:42:17.441Z,101908.06
2022-08-07T07:44:50.032Z,101908.56
2022-08-07T07:47:22.884Z,101907.31
2022-08-07T07:50:36.531Z,101908.81
2022-08-07T07:52:47.653Z,101911.16
2022-08-07T07:55:19.662Z,101904.47
2022-08-07T07:57:52.855Z,101911.28
2022-08-07T08:00:29.735Z,101908.97
2022-08-07T08:03:08.402Z,101912.09
2022-08-07T08:05:54.402Z,101910.00
2022-08-07T08:08:36.977Z,101909.63
2022-08-07T08:11:16.143Z,101912.94
2022-08-07T08:13:54.780Z,101910.78
2022-08-07T08:16:35.131Z,101913.31
2022-08-07T08:19:18.230Z,101900.41
2022-08-07T08:22:16.724Z,101906.53
2022-08-07T08:25:24.646Z,101908.09
2022-08-07T08:28:01.810Z,101900.50
2022-08-07T08:30:42.503Z,101912.84
2022-08-07T08:33:16.981Z,101912.56
2022-08-07T08:35:51.048Z,101915.84
2022-08-07T08:38:29.271Z,101915.66
2022-08-07T08:41:09.205Z,101918.94
2022-08-07T08:43:58.878Z,101909.63
2022-08-07T08:46:40.619Z,101912.03
2022-08-07T08:49:32.943Z,101911.56
2022-08-07T08:52:14.312Z,101906.63
2022-08-07T08:54:52.157Z,101903.38
2022-08-07T08:57:33.957Z,101904.72
2022-08-07T09:00:06.342Z,101895.09
2022-08-07T09:02:42.810Z,101902.94
2022-08-07T09:05:36.932Z,101899.03
2022-08-07T09:08:33.809Z,101908.56
2022-08-07T09:11:24.243Z,101908.13
2022-08-07T09:14:15.594Z,101907.50
2022-08-07T09:16:58.459Z,101902.41
2022-08-07T09:19:53.301Z,101910.09
2022-08-07T09:24:32.440Z,101908.78
2022-08-07T09:25:54.499Z,101906.84
2022-08-07T09:30:05.475Z,101911.44
2022-08-07T09:31:38.677Z,101906.06
2022-08-07T09:34:16.003Z,101900.72
2022-08-07T09:36:52.836Z,101901.50
2022-08-07T09:39:54.796Z,101890.53
2022-08-07T09:42:39.097Z,101890.28
2022-08-07T09:47:52.711Z,101896.94
2022-08-07T09:48:19.069Z,101896.41
2022-08-07T09:51:01.604Z,101890.56
2022-08-07T09:53:40.854Z,101890.13
2022-08-07T09:56:46.426Z,101882.28
2022-08-07T09:59:44.659Z,101884.56
2022-08-07T10:02:55.819Z,101877.91
2022-08-07T10:06:00.292Z,101875.50
2022-08-07T10:08:49.585Z,101879.53
2022-08-07T10:12:02.067Z,101868.97
2022-08-07T10:14:40.568Z,101861.78
2022-08-07T10:17:29.938Z,101870.25
2022-08-07T10:20:27.728Z,101868.72
2022-08-07T10:24:06.342Z,101866.28
2022-08-07T10:26:40.824Z,101867.72
2022-08-07T10:29:30.359Z,101872.84
2022-08-07T10:32:51.510Z,101867.88
2022-08-07T10:35:25.837Z,101859.22
2022-08-07T10:38:35.225Z,101864.47
2022-08-07T10:41:10.643Z,101856.47
2022-08-07T10:43:45.279Z,101863.22
2022-08-07T10:46:20.374Z,101866.16
2022-08-07T10:48:58.853Z,101861.06
2022-08-07T10:52:01.971Z,101865.97
2022-08-07T10:54:35.462Z,101861.03
2022-08-07T10:57:14.020Z,101866.22
2022-08-07T11:00:03.772Z,101858.66
2022-08-07T11:02:41.347Z,101865.00
2022-08-07T11:05:48.727Z,101848.75
2022-08-07T11:08:31.076Z,101858.78
2022-08-07T11:11:09.163Z,101860.03
2022-08-07T11:14:44.916Z,101851.44
2022-08-07T11:16:40.056Z,101850.06
2022-08-07T11:19:21.639Z,101854.00
2022-08-07T11:22:18.927Z,101851.97
2022-08-07T11:25:06.818Z,101854.06
2022-08-07T11:28:02.855Z,101857.91
2022-08-07T11:30:59.265Z,101860.50
2022-08-07T11:33:59.496Z,101857.56
2022-08-07T11:36:41.886Z,101849.78
2022-08-07T11:39:59.141Z,101852.78
2022-08-07T11:42:31.178Z,101851.81
2022-08-07T11:45:12.232Z,101848.25
2022-08-07T11:48:03.374Z,101860.97
2022-08-07T11:50:57.268Z,101855.53
2022-08-07T11:53:43.417Z,101856.34
2022-08-07T11:56:43.101Z,101857.13
2022-08-07T12:00:11.106Z,101846.06
2022-08-07T12:02:53.626Z,101838.34
2022-08-07T12:05:47.172Z,101843.34
2022-08-07T12:08:31.907Z,101839.22
2022-08-07T12:11:20.981Z,101841.19
2022-08-07T12:13:58.139Z,101828.84
2022-08-07T12:16:31.922Z,101833.19
2022-08-07T12:19:14.827Z,101832.13
2022-08-07T12:22:37.386Z,101826.72
2022-08-07T12:26:05.323Z,101826.22
2022-08-07T12:28:15.876Z,101818.97
2022-08-07T12:30:57.311Z,101814.53
2022-08-07T12:33:56.643Z,101819.22
2022-08-07T12:36:33.558Z,101825.97
2022-08-07T12:39:41.151Z,101827.53
2022-08-07T12:41:57.924Z,101823.56
2022-08-07T12:44:29.981Z,101824.84
2022-08-07T12:47:14.145Z,101842.50
2022-08-07T12:50:04.881Z,101831.78
2022-08-07T12:52:47.389Z,101831.78
2022-08-07T12:55:41.394Z,101829.91
2022-08-07T12:58:21.237Z,101827.31
2022-08-07T13:01:14.647Z,101828.31
2022-08-07T13:04:06.210Z,101824.84
2022-08-07T13:08:13.586Z,101822.63
2022-08-07T13:10:39.575Z,101820.66
2022-08-07T13:13:46.675Z,101823.03
2022-08-07T13:16:29.410Z,101819.09
2022-08-07T13:19:21.939Z,101814.22
2022-08-07T13:22:12.739Z,101821.97
2022-08-07T13:25:00.071Z,101818.72
2022-08-07T13:28:11.236Z,101815.25
2022-08-07T13:30:40.439Z,101816.00
2022-08-07T13:34:30.740Z,101814.38
2022-08-07T13:36:17.490Z,101819.94
2022-08-07T13:38:54.431Z,101807.47
2022-08-07T13:41:35.677Z,101808.72
2022-08-07T13:44:13.316Z,101819.75
2022-08-07T13:46:49.560Z,101807.41
2022-08-07T13:50:35.583Z,101812.13
2022-08-07T13:52:32.583Z,101819.94
2022-08-07T13:55:10.965Z,101815.09
2022-08-07T13:57:57.936Z,101815.94
2022-08-07T14:00:50.351Z,101810.47
2022-08-07T14:03:29.574Z,101813.34
2022-08-07T14:06:17.000Z,101825.31
2022-08-07T14:08:53.666Z,101809.00
2022-08-07T14:11:24.352Z,101815.94
2022-08-07T14:14:03.312Z,101809.09
2022-08-07T14:16:40.820Z,101819.53
2022-08-07T14:20:41.016Z,101816.97
2022-08-07T14:22:15.682Z,101816.94
2022-08-07T14:25:08.189Z,101820.06
2022-08-07T14:28:11.203Z,101817.28
2022-08-07T14:30:34.028Z,101815.28
2022-08-07T14:33:06.343Z,101812.81
2022-08-07T14:35:45.760Z,101808.56
2022-08-07T14:38:30.681Z,101808.25
2022-08-07T14:41:04.290Z,101808.75
2022-08-07T14:43:59.337Z,101804.44
2022-08-07T14:46:32.439Z,101811.66
2022-08-07T14:49:17.325Z,101811.09
2022-08-07T14:52:04.500Z,101803.91
2022-08-07T14:54:42.066Z,101816.28
2022-08-07T14:57:19.047Z,101807.16
2022-08-07T15:00:05.752Z,101812.75
2022-08-07T15:02:39.365Z,101806.75
2022-08-07T15:05:20.383Z,101804.91
2022-08-07T15:10:58.567Z,101814.78
2022-08-07T15:13:36.723Z,101811.72
2022-08-07T15:16:14.687Z,101814.03
2022-08-07T15:18:55.784Z,101812.81
2022-08-07T15:21:58.874Z,101802.16
2022-08-07T15:25:15.071Z,101808.97
2022-08-07T15:27:24.350Z,101799.56
2022-08-07T15:30:08.969Z,101812.44
2022-08-07T15:32:50.702Z,101809.66
2022-08-07T15:36:00.587Z,101805.09
2022-08-07T15:41:23.551Z,101813.16
2022-08-07T15:44:02.279Z,101799.28
2022-08-07T15:46:42.647Z,101800.25
2022-08-07T15:49:25.485Z,101803.59
2022-08-07T15:52:17.234Z,101810.75
2022-08-07T15:54:53.701Z,101803.03
2022-08-07T15:57:39.453Z,101799.66
2022-08-07T16:00:31.400Z,101810.50
2022-08-07T16:03:21.381Z,101804.78
2022-08-07T16:05:52.732Z,101806.06
2022-08-07T16:08:33.089Z,101803.09
2022-08-07T16:11:26.702Z,101799.06
2022-08-07T16:14:09.014Z,101799.28
2022-08-07T16:17:15.944Z,101798.53
2022-08-07T16:20:04.161Z,101801.66
2022-08-07T16:22:54.554Z,101800.94
2022-08-07T16:25:54.140Z,101805.03
2022-08-07T16:30:06.516Z,101803.50
2022-08-07T16:31:57.926Z,101795.97
2022-08-07T16:34:48.424Z,101802.44
2022-08-07T16:38:04.207Z,101803.91
2022-08-07T16:41:15.618Z,101795.56
2022-08-07T16:44:40.472Z,101791.34
2022-08-07T16:47:56.426Z,101789.72
2022-08-07T16:51:20.774Z,101787.63
2022-08-07T16:54:06.242Z,101794.22
2022-08-07T16:56:56.727Z,101793.53
2022-08-07T16:59:46.226Z,101782.47
2022-08-07T17:02:53.180Z,101788.22
2022-08-07T17:06:19.819Z,101784.53
2022-08-07T17:09:08.798Z,101790.72
2022-08-07T17:12:04.523Z,101789.72
2022-08-07T17:14:36.267Z,101790.25
2022-08-07T17:17:15.135Z,101788.06
2022-08-07T17:20:02.212Z,101784.63
2022-08-07T17:22:42.746Z,101785.28
2022-08-07T17:25:19.469Z,101792.88
2022-08-07T17:27:59.451Z,101785.94
2022-08-07T17:30:57.482Z,101790.78
2022-08-07T17:34:09.143Z,101800.81
2022-08-07T17:36:26.237Z,101792.88
2022-08-07T17:39:02.540Z,101797.53
2022-08-07T17:42:04.705Z,101794.03
2022-08-07T17:44:49.787Z,101786.81
2022-08-07T17:47:39.842Z,101790.59
2022-08-07T17:50:19.905Z,101788.84
2022-08-07T17:52:59.628Z,101796.00
2022-08-07T17:56:00.923Z,101786.84
2022-08-07T17:58:37.005Z,101785.91
2022-08-07T18:01:21.577Z,101788.47
2022-08-07T18:04:16.391Z,101791.88
2022-08-07T18:07:12.832Z,101792.56
2022-08-07T18:10:07.185Z,101795.25
2022-08-07T18:12:52.749Z,101795.91
2022-08-07T18:15:32.618Z,101798.50
2022-08-07T18:18:45.626Z,101802.78
2022-08-07T18:21:37.133Z,101801.84
2022-08-07T18:24:02.167Z,101809.91
2022-08-07T18:26:49.869Z,101805.09
2022-08-07T18:30:07.971Z,101800.31
2022-08-07T18:32:35.457Z,101803.78
2022-08-07T18:35:15.963Z,101810.75
2022-08-07T18:38:58.250Z,101805.19
2022-08-07T18:41:10.388Z,101806.75
2022-08-07T18:44:04.301Z,101820.28
2022-08-07T18:46:46.238Z,101822.84
2022-08-07T18:50:19.122Z,101827.16
2022-08-07T18:52:53.003Z,101825.25
2022-08-07T18:55:42.363Z,101828.81
2022-08-07T18:58:34.596Z,101829.59
2022-08-07T19:02:18.993Z,101825.81
2022-08-07T19:04:09.909Z,101837.41
2022-08-07T19:06:54.341Z,101833.53
2022-08-07T19:09:57.263Z,101838.69
2022-08-07T19:12:31.913Z,101836.66
2022-08-07T19:16:02.172Z,101845.47
2022-08-07T19:18:16.359Z,101837.16
2022-08-07T19:21:08.538Z,101837.69
2022-08-07T19:23:57.145Z,101836.59
2022-08-07T19:26:47.917Z,101838.03
2022-08-07T19:31:02.068Z,101848.69
2022-08-07T19:32:28.932Z,101835.00
2022-08-07T19:35:04.362Z,101840.25
2022-08-07T19:37:56.374Z,101838.19
2022-08-07T19:40:34.704Z,101829.19
2022-08-07T19:43:21.643Z,101831.84
2022-08-07T19:46:10.114Z,101829.03
2022-08-07T19:48:44.194Z,101841.47
2022-08-07T19:51:20.162Z,101840.25
2022-08-07T19:54:31.284Z,101849.84
2022-08-07T19:58:03.045Z,101850.44
2022-08-07T19:59:42.119Z,101853.84
2022-08-07T20:02:19.267Z,101859.91
2022-08-07T20:04:56.106Z,101857.78
2022-08-07T20:07:45.785Z,101859.16
2022-08-07T20:10:37.793Z,101856.16
2022-08-07T20:13:23.002Z,101856.63
2022-08-07T20:15:57.881Z,101865.16
2022-08-07T20:18:32.735Z,101866.53
2022-08-07T20:21:21.155Z,101867.00
2022-08-07T20:23:54.954Z,101860.31
2022-08-07T20:26:38.723Z,101858.16
2022-08-07T20:29:49.234Z,101861.19
2022-08-07T20:32:11.522Z,101852.59
2022-08-07T20:35:07.736Z,101845.75
2022-08-07T20:37:55.387Z,101849.72
2022-08-07T20:40:34.669Z,101855.44
2022-08-07T20:43:09.651Z,101856.69
2022-08-07T20:46:28.666Z,101863.34
2022-08-07T20:49:55.186Z,101849.31
2022-08-07T20:51:35.749Z,101860.56
2022-08-07T20:54:08.675Z,101853.72
2022-08-07T20:56:48.371Z,101859.41
2022-08-07T21:00:05.153Z,101866.06
2022-08-07T21:05:42.703Z,101866.78
2022-08-07T21:08:20.721Z,101861.69
2022-08-07T21:11:12.394Z,101869.25
2022-08-07T21:14:16.868Z,101868.66
2022-08-07T21:16:55.994Z,101860.94
2022-08-07T21:19:32.046Z,101863.03
2022-08-07T21:22:19.648Z,101855.22
2022-08-07T21:25:12.074Z,101863.50
2022-08-07T21:28:02.649Z,101856.50
2022-08-07T21:30:43.868Z,101863.88
2022-08-07T21:33:21.475Z,101861.28
2022-08-07T21:36:04.038Z,101857.78
2022-08-07T21:38:49.866Z,101853.56
2022-08-07T21:41:38.365Z,101857.31
2022-08-07T21:44:30.190Z,101856.56
2022-08-07T21:47:07.372Z,101861.28
2022-08-07T21:50:01.934Z,101860.63
2022-08-07T21:52:43.767Z,101862.63
2022-08-07T21:55:28.369Z,101856.56
2022-08-07T21:58:09.223Z,101856.81
2022-08-07T22:00:48.382Z,101859.75
2022-08-07T22:03:30.787Z,101864.47
2022-08-07T22:06:08.075Z,101858.38
2022-08-07T22:09:00.817Z,101863.03
2022-08-07T22:12:05.392Z,101860.50
2022-08-07T22:14:38.763Z,101867.00
2022-08-07T22:17:35.952Z,101863.72
2022-08-07T22:20:22.714Z,101874.72
2022-08-07T22:22:57.610Z,101865.16
2022-08-07T22:25:36.004Z,101869.03
2022-08-07T22:28:31.832Z,101864.78
2022-08-07T22:31:07.891Z,101866.84
2022-08-07T22:33:57.200Z,101869.69
2022-08-07T22:36:39.212Z,101869.88
2022-08-07T22:39:17.391Z,101862.88
2022-08-07T22:42:03.486Z,101871.03
2022-08-07T22:44:59.048Z,101863.22
2022-08-07T22:48:31.659Z,101860.69
2022-08-07T22:51:15.579Z,101851.06
2022-08-07T22:54:06.775Z,101855.69
2022-08-07T22:56:48.634Z,101849.59
2022-08-07T22:59:52.368Z,101848.03
2022-08-07T23:02:38.489Z,101857.13
2022-08-07T23:06:15.077Z,101855.47
2022-08-07T23:08:58.683Z,101845.75
2022-08-07T23:12:00.039Z,101847.69
2022-08-07T23:14:40.467Z,101843.28
2022-08-07T23:17:32.250Z,101843.38
2022-08-07T23:20:52.619Z,101843.53
2022-08-07T23:24:05.681Z,101851.66
2022-08-07T23:26:54.791Z,101833.88
2022-08-07T23:30:38.977Z,101848.34
2022-08-07T23:34:23.020Z,101845.84
2022-08-07T23:36:05.726Z,101842.44
2022-08-07T23:38:55.060Z,101842.59
2022-08-07T23:42:01.707Z,101842.75
2022-08-07T23:45:33.466Z,101844.75
2022-08-07T23:48:25.619Z,101833.19
2022-08-07T23:51:01.357Z,101835.03
2022-08-07T23:53:51.108Z,101840.41
2022-08-07T23:56:27.671Z,101841.34
